Time;durP1;ratioP1;P1;durP2;ratioP2;P2;SDS_P1;SDS_P2;PMS_P1;PMS_P2;Temp;Humidity;BMP_temperature;BMP_pressure;BME280_temperature;BME280_humidity;BME280_pressure;Samples;Min_cycle;Max_cycle;Signal;HPM_P1;HPM_P2
2023/02/21 02:14:56;;;;;;;77.77;28.43;;;;;;;15.81;100.00;101873.72;5080305;28;20345;-49
2023/02/21 02:17:49;;;;;;;70.17;26.30;;;;;;;15.91;100.00;101859.88;5101709;28;20257;-52
2023/02/21 02:20:20;;;;;;;69.77;26.63;;;;;;;15.93;100.00;101865.06;5082585;28;20280;-50
2023/02/21 02:23:13;;;;;;;65.50;23.47;;;;;;;16.54;100.00;101869.41;5083874;28;20261;-49
2023/02/21 02:25:58;;;;;;;65.10;23.17;;;;;;;15.47;100.00;101875.53;5097223;28;20289;-52
2023/02/21 02:29:01;;;;;;;62.73;23.93;;;;;;;15.86;100.00;101865.84;5080307;28;20276;-54
2023/02/21 02:32:04;;;;;;;70.97;25.63;;;;;;;15.91;100.00;101858.03;5102181;28;20262;-48
2023/02/21 02:35:03;;;;;;;73.67;26.83;;;;;;;16.16;100.00;101857.41;5097857;28;20291;-51
2023/02/21 02:38:03;;;;;;;84.10;27.60;;;;;;;16.37;100.00;101860.91;5086709;28;20257;-52
2023/02/21 02:40:44;;;;;;;69.50;25.10;;;;;;;16.51;100.00;101861.72;5082281;28;20263;-50
2023/02/21 02:43:20;;;;;;;68.97;25.97;;;;;;;15.34;100.00;101852.88;5095430;28;20284;-53
2023/02/21 02:45:52;;;;;;;74.40;28.53;;;;;;;15.99;100.00;101856.16;5078172;28;20282;-53
2023/02/21 02:48:27;;;;;;;65.03;26.90;;;;;;;15.46;100.00;101850.44;5098700;28;20261;-49
2023/02/21 02:50:54;;;;;;;66.10;26.00;;;;;;;15.51;100.00;101863.31;5081927;28;20269;-50
2023/02/21 02:53:26;;;;;;;74.30;27.03;;;;;;;15.57;100.00;101861.63;5079281;28;20276;-49
2023/02/21 02:56:02;;;;;;;70.67;28.37;;;;;;;16.31;100.00;101861.75;5081389;28;20272;-50
2023/02/21 02:58:36;;;;;;;88.57;29.50;;;;;;;16.16;100.00;101868.19;5079796;28;20276;-53
2023/02/21 03:01:08;;;;;;;89.77;30.43;;;;;;;16.58;100.00;101856.28;5079809;28;20268;-50
2023/02/21 03:03:43;;;;;;;78.27;28.57;;;;;;;16.02;100.00;101858.44;5102734;28;20281;-50
2023/02/21 03:06:16;;;;;;;79.27;29.17;;;;;;;15.79;100.00;101846.13;5096393;28;20280;-49
2023/02/21 03:08:54;;;;;;;75.50;28.50;;;;;;;15.59;100.00;101836.16;5075186;28;20289;-54
2023/02/21 03:11:22;;;;;;;80.47;30.13;;;;;;;15.54;100.00;101833.25;5100051;28;20273;-50
2023/02/21 03:13:54;;;;;;;83.37;30.90;;;;;;;15.58;100.00;101831.78;5083436;28;20277;-51
2023/02/21 03:16:30;;;;;;;77.33;29.73;;;;;;;16.34;100.00;101845.97;5078221;28;20269;-53
2023/02/21 03:19:01;;;;;;;77.13;30.53;;;;;;;15.70;100.00;101842.81;5098625;28;20261;-52
2023/02/21 03:21:37;;;;;;;76.40;29.27;;;;;;;15.81;100.00;101838.66;5101183;28;20265;-54
2023/02/21 03:24:04;;;;;;;72.90;26.47;;;;;;;15.66;100.00;101857.75;5099077;28;20296;-54
2023/02/21 03:26:35;;;;;;;73.37;28.60;;;;;;;15.18;100.00;101850.53;5105309;28;20276;-52
2023/02/21 03:29:18;;;;;;;75.07;27.43;;;;;;;16.17;100.00;101856.38;5115416;28;20306;-49
2023/02/21 03:31:47;;;;;;;71.50;28.63;;;;;;;16.03;100.00;101855.53;5090778;28;20280;-56
2023/02/21 03:34:14;;;;;;;73.97;27.93;;;;;;;15.69;100.00;101851.94;5084245;28;20276;-52
2023/02/21 03:36:40;;;;;;;73.10;26.30;;;;;;;16.32;100.00;101858.00;5098619;28;20321;-53
2023/02/21 03:39:07;;;;;;;70.93;27.33;;;;;;;15.29;100.00;101857.22;5080955;28;20284;-53
2023/02/21 03:41:32;;;;;;;73.00;28.20;;;;;;;15.46;100.00;101850.44;5079942;28;20296;-50
2023/02/21 03:43:58;;;;;;;74.57;27.25;;;;;;;15.37;100.00;101851.66;5083517;28;20048;-49
2023/02/21 03:46:23;;;;;;;67.13;26.23;;;;;;;15.92;100.00;101850.75;5086808;28;20051;-48
2023/02/21 03:48:49;;;;;;;70.32;27.52;;;;;;;15.86;100.00;101852.34;5099827;28;20028;-52
2023/02/21 03:51:19;;;;;;;74.03;29.07;;;;;;;15.56;100.00;101850.03;5080443;28;20036;-50
2023/02/21 03:53:46;;;;;;;64.00;25.15;;;;;;;15.22;100.00;101846.41;5081995;28;20261;-50
2023/02/21 03:56:11;;;;;;;74.53;27.42;;;;;;;15.19;100.00;101854.88;5082320;28;20036;-53
2023/02/21 03:59:02;;;;;;;60.90;24.50;;;;;;;15.69;100.00;101840.31;5084826;28;20025;-55
2023/02/21 04:01:28;;;;;;;61.07;26.37;;;;;;;15.72;100.00;101850.69;5081865;28;20291;-52
2023/02/21 04:03:54;;;;;;;81.30;28.63;;;;;;;15.26;100.00;101850.38;5081523;28;20355;-49
2023/02/21 04:06:21;;;;;;;79.10;30.77;;;;;;;15.68;100.00;101847.56;5084276;28;20071;-48
2023/02/21 04:08:47;;;;;;;83.28;31.60;;;;;;;15.29;100.00;101849.97;5082608;28;20348;-52
2023/02/21 04:11:17;;;;;;;86.13;32.42;;;;;;;15.40;100.00;101847.72;5080051;28;20035;-50
2023/02/21 04:13:43;;;;;;;76.57;29.57;;;;;;;15.27;100.00;101845.81;5081876;28;20545;-48
2023/02/21 04:16:08;;;;;;;84.93;30.13;;;;;;;15.70;100.00;101840.09;5080404;28;20285;-52
2023/02/21 04:18:34;;;;;;;90.65;32.75;;;;;;;15.90;100.00;101834.75;5079428;28;20024;-51
2023/02/21 04:21:00;;;;;;;89.28;32.35;;;;;;;15.93;100.00;101844.31;5087579;28;20032;-51
2023/02/21 04:23:27;;;;;;;81.78;31.55;;;;;;;15.95;100.00;101846.81;5085494;28;20096;-54
2023/02/21 04:25:53;;;;;;;88.75;31.48;;;;;;;15.93;100.00;101833.53;5084500;28;20051;-54
2023/02/21 04:28:25;;;;;;;73.90;28.70;;;;;;;15.61;100.00;101835.97;5085417;28;20030;-54
2023/02/21 04:30:51;;;;;;;82.70;30.20;;;;;;;15.67;100.00;101845.06;5107206;28;20269;-51
2023/02/21 04:33:17;;;;;;;90.67;31.87;;;;;;;16.14;100.00;101835.16;5090070;28;20119;-53
2023/02/21 04:35:43;;;;;;;90.78;31.90;;;;;;;16.21;100.00;101835.16;5084908;28;20285;-50
2023/02/21 04:38:18;;;;;;;84.37;30.03;;;;;;;16.03;100.00;101828.56;5084022;28;20032;-48
2023/02/21 04:40:43;;;;;;;88.40;32.83;;;;;;;16.32;100.00;101831.84;5100790;28;20277;-50
2023/02/21 04:43:09;;;;;;;83.80;31.48;;;;;;;16.13;100.00;101825.41;5086226;28;20065;-52
2023/02/21 04:45:36;;;;;;;74.63;29.63;;;;;;;16.47;100.00;101820.81;5091775;28;20553;-50
2023/02/21 04:48:04;;;;;;;88.73;34.10;;;;;;;15.90;100.00;101818.56;5088673;28;20268;-52
2023/02/21 04:50:30;;;;;;;86.60;31.30;;;;;;;16.56;100.00;101825.97;5098377;28;20264;-52
2023/02/21 04:52:55;;;;;;;92.38;34.75;;;;;;;16.29;100.00;101816.09;5101684;28;20095;-53
2023/02/21 04:55:21;;;;;;;96.20;31.53;;;;;;;16.03;100.00;101811.53;5108497;28;20024;-48
2023/02/21 04:57:46;;;;;;;85.50;32.27;;;;;;;16.46;100.00;101815.63;5105354;28;20028;-50
2023/02/21 05:00:12;;;;;;;82.85;30.45;;;;;;;15.70;100.00;101813.13;5099387;28;20117;-51
2023/02/21 05:02:42;;;;;;;84.78;31.52;;;;;;;16.28;100.00;101818.97;5100960;28;20046;-48
2023/02/21 05:05:09;;;;;;;82.17;30.90;;;;;;;16.49;100.00;101809.78;5098693;28;20028;-51
2023/02/21 05:07:35;;;;;;;91.40;31.50;;;;;;;15.89;100.00;101805.31;5099168;28;20299;-49
2023/02/21 05:10:04;;;;;;;83.32;30.90;;;;;;;15.80;100.00;101796.56;5106764;28;20270;-54
2023/02/21 05:12:30;;;;;;;86.60;30.70;;;;;;;15.67;100.00;101802.78;5105308;28;20057;-51
2023/02/21 05:14:56;;;;;;;79.18;29.58;;;;;;;15.46;100.00;101823.47;5101164;28;20349;-53
2023/02/21 05:17:21;;;;;;;93.83;33.53;;;;;;;15.55;100.00;101813.34;5102057;28;20045;-52
2023/02/21 05:19:47;;;;;;;87.87;31.23;;;;;;;15.26;100.00;101807.25;5097905;28;20036;-48
2023/02/21 05:22:13;;;;;;;83.60;29.20;;;;;;;15.66;100.00;101805.66;5099669;28;20036;-50
2023/02/21 05:24:41;;;;;;;88.22;30.63;;;;;;;14.75;100.00;101806.63;5105812;28;20073;-51
2023/02/21 05:27:10;;;;;;;94.03;31.40;;;;;;;14.97;100.00;101814.59;5102826;28;20032;-50
2023/02/21 05:29:36;;;;;;;86.30;30.23;;;;;;;14.98;100.00;101813.56;5102200;28;20328;-52
2023/02/21 05:32:03;;;;;;;82.05;30.08;;;;;;;15.71;100.00;101820.19;5095650;28;20269;-52
2023/02/21 05:34:28;;;;;;;95.10;32.05;;;;;;;16.09;100.00;101816.09;5095826;28;20062;-53
2023/02/21 05:36:54;;;;;;;93.57;31.20;;;;;;;15.45;100.00;101815.56;5102549;28;20036;-51
2023/02/21 05:39:21;;;;;;;91.67;33.27;;;;;;;15.59;100.00;101822.66;5107317;28;20048;-51
2023/02/21 05:41:50;;;;;;;98.28;33.33;;;;;;;16.05;100.00;101820.25;5101920;28;20288;-53
2023/02/21 05:44:17;;;;;;;90.30;32.33;;;;;;;16.00;100.00;101822.72;5099106;28;20047;-52
2023/02/21 05:46:44;;;;;;;84.63;29.27;;;;;;;15.80;100.00;101826.22;5102657;28;20281;-50
2023/02/21 05:49:10;;;;;;;95.47;34.80;;;;;;;15.86;100.00;101820.00;5098507;28;20273;-47
2023/02/21 05:51:38;;;;;;;104.53;30.77;;;;;;;15.97;100.00;101831.25;5102041;28;20299;-53
2023/02/21 05:54:05;;;;;;;85.33;32.00;;;;;;;16.01;100.00;101845.97;5100933;28;20029;-52
2023/02/21 05:56:37;;;;;;;91.80;33.60;;;;;;;16.14;100.00;101835.16;5100708;28;20260;-52
2023/02/21 05:59:03;;;;;;;81.27;30.67;;;;;;;16.06;100.00;101838.09;5100853;28;20265;-50
2023/02/21 06:01:28;;;;;;;101.23;32.70;;;;;;;15.95;100.00;101838.72;5102619;28;20267;-50
2023/02/21 06:03:54;;;;;;;91.40;33.03;;;;;;;16.01;100.00;101841.41;5082597;28;20303;-53
2023/02/21 06:06:19;;;;;;;94.95;30.92;;;;;;;15.94;100.00;101845.16;5095216;28;20054;-50
2023/02/21 06:08:47;;;;;;;93.17;30.83;;;;;;;16.85;100.00;101851.66;5099006;28;20047;-52
2023/02/21 06:11:13;;;;;;;86.10;31.00;;;;;;;16.58;100.00;101850.91;5100175;28;20117;-53
2023/02/21 06:13:40;;;;;;;90.80;32.57;;;;;;;17.17;100.00;101842.84;5100752;28;20257;-52
2023/02/21 06:16:06;;;;;;;88.72;32.65;;;;;;;16.44;100.00;101853.63;5099548;28;20277;-51
2023/02/21 06:18:31;;;;;;;96.70;32.42;;;;;;;15.78;100.00;101841.78;5096898;28;20037;-54
2023/02/21 06:20:57;;;;;;;;;;;;;;;16.01;100.00;101836.00;5100938;28;20023;-52
2023/02/21 06:23:23;;;;;;;93.83;31.70;;;;;;;16.15;100.00;101839.56;5102235;28;19911;-49
2023/02/21 06:25:49;;;;;;;102.72;33.55;;;;;;;16.75;100.00;101848.59;5104144;28;20043;-49
2023/02/21 06:28:14;;;;;;;98.30;31.43;;;;;;;16.19;100.00;101850.75;5098964;28;20035;-54
2023/02/21 06:30:39;;;;;;;114.60;36.13;;;;;;;16.29;100.00;101855.72;5100270;28;20039;-52
2023/02/21 06:33:05;;;;;;;109.70;37.70;;;;;;;16.71;100.00;101841.94;5097156;28;20029;-51
2023/02/21 06:35:30;;;;;;;98.73;32.60;;;;;;;16.61;100.00;101839.69;5096296;28;20104;-51
2023/02/21 06:37:55;;;;;;;100.20;33.93;;;;;;;16.22;100.00;101842.22;5099897;28;20032;-51
2023/02/21 06:40:21;;;;;;;96.43;32.80;;;;;;;16.28;100.00;101859.47;5097864;28;20040;-55
2023/02/21 06:42:46;;;;;;;117.63;37.70;;;;;;;15.57;100.00;101850.84;5096901;28;20025;-52
2023/02/21 06:45:12;;;;;;;102.50;33.27;;;;;;;16.38;100.00;101859.88;5099433;28;20302;-52
2023/02/21 06:47:37;;;;;;;116.67;36.00;;;;;;;16.72;100.00;101851.69;5101555;28;20087;-53
2023/02/21 06:50:03;;;;;;;114.87;34.23;;;;;;;15.73;100.00;101845.09;5079737;28;20124;-50
2023/02/21 06:52:30;;;;;;;111.43;35.60;;;;;;;15.76;100.00;101839.28;5100159;28;20024;-54
2023/02/21 06:54:55;;;;;;;102.83;33.90;;;;;;;15.60;100.00;101842.38;5096612;28;20020;-50
2023/02/21 06:57:21;;;;;;;110.50;35.20;;;;;;;16.66;100.00;101856.09;5096965;28;20290;-49
2023/02/21 06:59:46;;;;;;;107.67;36.63;;;;;;;16.24;100.00;101859.03;5096656;28;20036;-50
2023/02/21 07:02:18;;;;;;;106.03;33.70;;;;;;;15.97;100.00;101861.75;5099564;28;20264;-53
2023/02/21 07:04:45;;;;;;;113.73;34.73;;;;;;;16.81;100.00;101861.25;5094779;28;20044;-52
2023/02/21 07:07:10;;;;;;;;;;;;;;;17.17;100.00;101859.88;5092754;28;20354;-54
2023/02/21 07:09:36;;;;;;;106.10;32.60;;;;;;;17.58;100.00;101859.66;5092528;28;19912;-52
2023/02/21 07:12:02;;;;;;;114.47;34.57;;;;;;;17.17;100.00;101853.66;5098248;28;20029;-50
2023/02/21 07:14:28;;;;;;;113.83;35.93;;;;;;;15.82;100.00;101851.13;5096544;28;20036;-51
2023/02/21 07:16:53;;;;;;;107.60;34.40;;;;;;;16.19;100.00;101851.59;5099827;28;20316;-52
2023/02/21 07:19:19;;;;;;;110.00;34.17;;;;;;;16.33;100.00;101855.09;5079284;28;20075;-52
2023/02/21 07:21:44;;;;;;;102.37;34.70;;;;;;;15.61;100.00;101852.94;5096842;28;20104;-53
2023/02/21 07:24:09;;;;;;;99.07;35.87;;;;;;;15.95;100.00;101849.50;5097219;28;20108;-53
2023/02/21 07:26:36;;;;;;;107.63;36.23;;;;;;;15.83;100.00;101849.25;5097834;28;20078;-53
2023/02/21 07:29:03;;;;;;;115.43;37.83;;;;;;;16.54;100.00;101849.66;5099631;28;20038;-54
2023/02/21 07:31:29;;;;;;;113.23;37.67;;;;;;;16.17;100.00;101853.66;5100851;28;20314;-55
2023/02/21 07:33:54;;;;;;;111.07;36.83;;;;;;;15.75;100.00;101863.78;5099692;28;20269;-53
2023/02/21 07:36:22;;;;;;;101.47;33.50;;;;;;;16.36;100.00;101859.22;5102336;28;20280;-52
2023/02/21 07:38:47;;;;;;;109.37;34.87;;;;;;;15.74;100.00;101859.41;5100073;28;20051;-55
2023/02/21 07:41:16;;;;;;;114.30;36.33;;;;;;;16.07;100.00;101858.63;5099799;28;20261;-54
2023/02/21 07:43:42;;;;;;;110.73;34.00;;;;;;;16.30;100.00;101862.78;5099500;28;20066;-53
2023/02/21 07:46:15;;;;;;;105.37;34.07;;;;;;;17.05;100.00;101870.53;5100486;28;20269;-52
2023/02/21 07:48:41;;;;;;;122.00;36.90;;;;;;;16.07;100.00;101858.63;5096661;28;20032;-54
2023/02/21 07:51:08;;;;;;;105.57;34.50;;;;;;;16.70;100.00;101859.19;5097889;28;20344;-50
2023/02/21 07:53:34;;;;;;;110.83;36.00;;;;;;;15.93;100.00;101855.09;5083567;28;20020;-48
2023/02/21 07:56:02;;;;;;;104.15;36.53;;;;;;;16.70;100.00;101869.97;5099780;28;20276;-55
2023/02/21 07:58:28;;;;;;;111.83;35.87;;;;;;;16.28;100.00;101865.69;5095668;28;20102;-55
2023/02/21 08:00:54;;;;;;;98.40;33.30;;;;;;;16.31;100.00;101872.53;5099993;28;20269;-54
2023/02/21 08:03:20;;;;;;;115.82;35.10;;;;;;;16.69;100.00;101863.75;5095684;28;20028;-51
2023/02/21 08:05:46;;;;;;;115.38;34.80;;;;;;;16.58;100.00;101856.28;5101239;28;20142;-54
2023/02/21 08:08:14;;;;;;;95.03;29.77;;;;;;;17.18;100.00;101882.34;5095067;28;20028;-52
2023/02/21 08:10:39;;;;;;;112.33;35.50;;;;;;;16.55;100.00;101876.47;5097441;28;20033;-49
2023/02/21 08:13:05;;;;;;;106.80;34.30;;;;;;;16.49;100.00;101874.59;5098344;28;20372;-53
2023/02/21 08:15:30;;;;;;;114.90;34.33;;;;;;;16.72;100.00;101868.75;5102032;28;20024;-51
2023/02/21 08:17:56;;;;;;;103.03;32.70;;;;;;;16.76;100.00;101867.28;5101108;28;20036;-52
2023/02/21 08:20:21;;;;;;;112.00;34.25;;;;;;;16.12;100.00;101874.22;5095322;28;20067;-53
2023/02/21 08:22:47;;;;;;;108.87;32.17;;;;;;;16.10;100.00;101868.19;5098165;28;20048;-50
2023/02/21 08:25:14;;;;;;;96.60;31.23;;;;;;;16.36;100.00;101864.63;5098726;28;20029;-49
2023/02/21 08:27:41;;;;;;;105.37;32.53;;;;;;;16.42;100.00;101871.91;5100524;28;20044;-56
2023/02/21 08:30:13;;;;;;;102.87;28.77;;;;;;;16.15;100.00;101861.16;5101623;28;20302;-50
2023/02/21 08:32:39;;;;;;;98.90;28.23;;;;;;;16.15;100.00;101869.25;5100111;28;20088;-51
2023/02/21 08:35:05;;;;;;;99.82;28.40;;;;;;;15.50;100.00;101869.72;5097053;28;20302;-50
2023/02/21 08:37:34;;;;;;;102.13;30.13;;;;;;;16.44;100.00;101869.00;5102661;28;20111;-50
2023/02/21 08:40:03;;;;;;;100.80;30.13;;;;;;;15.82;100.00;101864.59;5102407;28;20044;-51
2023/02/21 08:42:28;;;;;;;98.97;29.93;;;;;;;15.85;100.00;101861.50;5095070;28;20356;-53
2023/02/21 08:44:54;;;;;;;101.30;29.30;;;;;;;16.06;100.00;101859.66;5094948;28;20350;-52
2023/02/21 08:47:20;;;;;;;99.80;30.00;;;;;;;15.86;100.00;101855.06;5102065;28;20036;-49
2023/02/21 08:49:47;;;;;;;101.83;29.00;;;;;;;15.61;100.00;101862.91;5099111;28;20062;-52
2023/02/21 08:52:15;;;;;;;101.80;28.27;;;;;;;15.43;100.00;101858.94;5096730;28;20273;-52
2023/02/21 08:54:41;;;;;;;103.87;30.90;;;;;;;15.80;100.00;101860.44;5098073;28;20280;-53
2023/02/21 08:57:07;;;;;;;88.57;26.13;;;;;;;16.61;100.00;101856.72;5098595;28;20277;-52
2023/02/21 08:59:33;;;;;;;107.10;30.20;;;;;;;15.72;100.00;101850.69;5094995;28;20032;-53
2023/02/21 09:02:00;;;;;;;96.67;28.37;;;;;;;15.97;100.00;101855.53;5094054;28;20025;-50
2023/02/21 09:04:28;;;;;;;95.82;26.90;;;;;;;15.72;100.00;101845.31;5078804;28;20331;-51
2023/02/21 09:06:54;;;;;;;92.37;27.43;;;;;;;16.09;100.00;101853.84;5102410;28;20044;-52
2023/02/21 09:09:21;;;;;;;99.30;29.53;;;;;;;15.34;100.00;101847.50;5106256;28;20415;-51
2023/02/21 09:11:48;;;;;;;88.80;24.77;;;;;;;15.32;100.00;101852.25;5099869;28;20273;-53
2023/02/21 09:14:15;;;;;;;91.47;26.03;;;;;;;15.58;100.00;101842.56;5101184;28;20032;-55
2023/02/21 09:16:41;;;;;;;103.43;27.83;;;;;;;15.43;100.00;101841.91;5102449;28;20277;-55
2023/02/21 09:19:08;;;;;;;112.63;30.83;;;;;;;16.51;100.00;101845.53;5105272;28;20290;-53
2023/02/21 09:21:38;;;;;;;101.65;29.00;;;;;;;15.86;100.00;101846.97;5104155;28;20265;-56
2023/02/21 09:24:04;;;;;;;93.50;27.23;;;;;;;16.30;100.00;101833.09;5105987;28;20028;-49
2023/02/21 09:26:32;;;;;;;92.07;27.90;;;;;;;16.83;100.00;101842.09;5100564;28;20337;-55
2023/02/21 09:28:58;;;;;;;94.17;27.73;;;;;;;16.75;100.00;101837.78;5102790;28;20063;-54
2023/02/21 09:31:23;;;;;;;108.20;29.10;;;;;;;16.78;100.00;101835.47;5101254;28;20265;-49
2023/02/21 09:33:49;;;;;;;102.15;28.38;;;;;;;16.03;100.00;101831.25;5096535;28;20059;-53
2023/02/21 09:36:15;;;;;;;96.50;27.33;;;;;;;16.20;100.00;101842.44;5082965;28;20063;-49
2023/02/21 09:38:41;;;;;;;99.75;27.17;;;;;;;16.28;100.00;101829.78;5097115;28;20302;-53
2023/02/21 09:41:10;;;;;;;80.23;26.13;;;;;;;15.77;100.00;101826.63;5099755;28;20028;-51
2023/02/21 09:43:38;;;;;;;102.80;27.33;;;;;;;15.88;100.00;101817.94;5101140;28;20059;-48
2023/02/21 09:46:12;;;;;;;99.73;26.20;;;;;;;16.26;100.00;101816.50;5101558;28;20277;-52
2023/02/21 09:48:39;;;;;;;96.53;26.43;;;;;;;15.15;100.00;101824.00;5100163;28;20278;-52
2023/02/21 09:51:09;;;;;;;91.90;26.70;;;;;;;15.95;100.00;101812.56;5097652;28;20265;-50
2023/02/21 09:53:40;;;;;;;87.77;27.20;;;;;;;16.67;100.00;101817.25;5099592;28;20277;-50
2023/02/21 09:56:25;;;;;;;95.00;26.10;;;;;;;15.89;100.00;101819.59;5092867;28;20272;-51
2023/02/21 09:58:51;;;;;;;96.27;26.17;;;;;;;16.28;100.00;101824.38;5099324;28;20275;-52
2023/02/21 10:01:37;;;;;;;88.00;28.93;;;;;;;16.03;100.00;101823.16;5097150;28;20265;-52
2023/02/21 10:04:20;;;;;;;85.03;25.60;;;;;;;15.97;100.00;101823.97;5097973;28;20051;-53
2023/02/21 10:07:01;;;;;;;85.57;27.03;;;;;;;17.31;100.00;101822.81;5100083;28;20277;-51
2023/02/21 10:09:50;;;;;;;89.67;26.60;;;;;;;17.02;100.00;101813.41;5102108;28;20276;-50
2023/02/21 10:12:28;;;;;;;97.80;28.40;;;;;;;16.80;100.00;101815.53;5098218;28;20283;-52
2023/02/21 10:15:28;;;;;;;90.83;27.63;;;;;;;16.92;100.00;101821.94;5093050;28;20262;-50
2023/02/21 10:18:25;;;;;;;79.60;24.40;;;;;;;17.21;100.00;101819.75;5100542;28;20257;-54
2023/02/21 10:20:58;;;;;;;86.67;25.20;;;;;;;17.65;100.00;101827.19;5097043;28;20269;-53
2023/02/21 10:23:32;;;;;;;74.80;22.57;;;;;;;16.39;100.00;101814.81;5097817;28;20342;-53
2023/02/21 10:26:04;;;;;;;74.93;23.30;;;;;;;17.15;100.00;101823.31;5097880;28;20305;-51
2023/02/21 10:28:30;;;;;;;73.17;22.03;;;;;;;16.26;100.00;101826.44;5079932;28;20329;-50
2023/02/21 10:31:03;;;;;;;74.80;23.43;;;;;;;16.99;100.00;101828.16;5087318;28;20296;-52
2023/02/21 10:33:32;;;;;;;62.20;22.67;;;;;;;16.66;100.00;101823.69;5094915;28;20266;-53
2023/02/21 10:35:57;;;;;;;59.60;20.83;;;;;;;16.54;100.00;101825.34;5103303;28;20280;-53
2023/02/21 10:38:25;;;;;;;60.23;20.97;;;;;;;16.84;100.00;101824.84;5104589;28;20296;-53
2023/02/21 10:41:03;;;;;;;56.43;20.53;;;;;;;17.10;100.00;101823.13;5095900;28;20105;-51
2023/02/21 10:43:50;;;;;;;54.90;18.63;;;;;;;16.85;100.00;101818.44;5097204;28;20276;-48
2023/02/21 10:46:33;;;;;;;52.47;17.87;;;;;;;17.47;100.00;101831.44;5103374;28;20269;-50
2023/02/21 10:49:23;;;;;;;53.40;17.67;;;;;;;17.74;100.00;101836.66;5093065;28;20376;-52
2023/02/21 10:52:02;;;;;;;46.80;17.70;;;;;;;16.89;100.00;101831.28;5099434;28;20300;-55
2023/02/21 10:54:28;;;;;;;48.03;18.30;;;;;;;16.88;100.00;101834.22;5097257;28;20308;-51
2023/02/21 10:56:54;;;;;;;53.47;16.30;;;;;;;16.00;100.00;101828.13;5096875;28;20273;-52
2023/02/21 10:59:25;;;;;;;44.00;14.95;;;;;;;16.19;100.00;101824.59;5099125;28;20268;-52
2023/02/21 11:01:52;;;;;;;45.90;15.83;;;;;;;16.63;100.00;101822.22;5094060;28;20048;-53
2023/02/21 11:04:20;;;;;;;48.23;17.37;;;;;;;16.53;100.00;101816.44;5098096;28;20322;-53
2023/02/21 11:06:47;;;;;;;40.83;15.97;;;;;;;16.69;100.00;101815.16;5101395;28;20265;-53
2023/02/21 11:09:25;;;;;;;44.33;16.00;;;;;;;15.91;100.00;101819.41;5095093;28;20276;-54
2023/02/21 11:12:22;;;;;;;43.03;15.20;;;;;;;15.31;100.00;101815.56;5098837;28;20277;-49
2023/02/21 11:14:51;;;;;;;45.03;14.50;;;;;;;16.00;100.00;101814.66;5095483;28;20256;-52
2023/02/21 11:17:23;;;;;;;51.33;16.53;;;;;;;16.42;100.00;101809.81;5099708;28;20265;-51
2023/02/21 11:19:56;;;;;;;42.80;16.37;;;;;;;16.12;100.00;101815.66;5097799;28;20269;-51
2023/02/21 11:22:41;;;;;;;42.90;15.67;;;;;;;15.88;100.00;101809.84;5096769;28;20262;-53
2023/02/21 11:25:20;;;;;;;43.97;15.00;;;;;;;16.54;100.00;101809.16;5099825;28;20305;-55
2023/02/21 11:27:59;;;;;;;46.03;16.50;;;;;;;17.31;100.00;101805.75;5098402;28;20269;-54
2023/02/21 11:30:25;;;;;;;48.57;17.17;;;;;;;16.90;100.00;101799.69;5095391;28;20261;-52
2023/02/21 11:32:55;;;;;;;46.37;16.63;;;;;;;17.30;100.00;101809.50;5102955;28;20294;-53
2023/02/21 11:35:23;;;;;;;43.00;16.03;;;;;;;16.94;100.00;101806.34;5101870;28;20186;-51
2023/02/21 11:37:55;;;;;;;45.13;15.50;;;;;;;16.83;100.00;101807.81;5100494;28;20277;-53
2023/02/21 11:40:34;;;;;;;40.00;15.23;;;;;;;16.24;100.00;101806.94;5097275;28;20283;-50
2023/02/21 11:43:10;;;;;;;45.13;16.80;;;;;;;16.99;100.00;101803.03;5095372;28;20261;-50
2023/02/21 11:45:41;;;;;;;41.30;14.43;;;;;;;17.14;100.00;101806.25;5097490;28;20312;-51
2023/02/21 11:48:15;;;;;;;44.37;13.80;;;;;;;16.99;100.00;101798.44;5098593;28;20288;-53
2023/02/21 11:50:48;;;;;;;45.23;16.03;;;;;;;17.02;100.00;101798.00;5102782;28;20269;-53
2023/02/21 11:53:34;;;;;;;47.67;16.00;;;;;;;16.48;100.00;101797.31;5095924;28;20272;-52
2023/02/21 11:56:33;;;;;;;49.37;16.60;;;;;;;16.81;100.00;101795.56;5091909;28;20295;-48
2023/02/21 11:59:16;;;;;;;43.30;15.93;;;;;;;16.91;100.00;101787.84;5076997;28;20288;-51
2023/02/21 12:01:48;;;;;;;45.83;15.13;;;;;;;16.62;100.00;101792.75;5092236;28;20044;-51
2023/02/21 12:04:37;;;;;;;48.20;16.00;;;;;;;17.27;100.00;101794.53;5100809;28;20284;-49
2023/02/21 12:07:30;;;;;;;44.30;15.73;;;;;;;17.18;100.00;101795.84;5097394;28;20266;-51
2023/02/21 12:10:21;;;;;;;44.40;15.20;;;;;;;16.83;100.00;101788.91;5096323;28;20277;-49
2023/02/21 12:12:58;;;;;;;37.47;13.83;;;;;;;16.39;100.00;101783.25;5096732;28;20272;-52
2023/02/21 12:15:29;;;;;;;38.50;13.17;;;;;;;16.61;100.00;101783.00;5098038;28;20257;-55
2023/02/21 12:18:09;;;;;;;45.30;15.23;;;;;;;16.94;100.00;101789.28;5100136;28;20311;-52
2023/02/21 12:20:42;;;;;;;33.73;13.73;;;;;;;16.93;100.00;101780.34;5100975;28;20265;-50
2023/02/21 12:23:33;;;;;;;34.60;11.80;;;;;;;16.09;100.00;101774.78;5099152;28;20273;-51
2023/02/21 12:26:30;;;;;;;33.30;12.73;;;;;;;16.94;100.00;101779.31;5094585;28;20313;-50
2023/02/21 12:29:26;;;;;;;34.67;12.43;;;;;;;16.90;100.00;101773.50;5101452;28;20269;-54
2023/02/21 12:32:00;;;;;;;34.57;11.03;;;;;;;16.26;100.00;101764.38;5100999;28;20040;-50
2023/02/21 12:34:44;;;;;;;35.30;12.10;;;;;;;17.35;100.00;101769.13;5097316;28;20275;-49
2023/02/21 12:37:25;;;;;;;35.97;12.67;;;;;;;17.18;100.00;101768.81;5100341;28;20277;-51
2023/02/21 12:39:51;;;;;;;34.27;11.90;;;;;;;17.71;100.00;101769.50;5094159;28;20273;-51
2023/02/21 12:43:01;;;;;;;35.17;12.20;;;;;;;17.65;100.00;101764.97;5100071;28;20314;-55
2023/02/21 12:45:42;;;;;;;32.47;12.87;;;;;;;18.09;100.00;101765.00;5080649;28;20112;-49
2023/02/21 12:48:24;;;;;;;28.00;12.47;;;;;;;17.00;100.00;101759.56;5104184;28;20265;-53
2023/02/21 12:50:53;;;;;;;32.97;12.17;;;;;;;17.13;100.00;101760.53;5081601;28;20264;-49
2023/02/21 12:53:34;;;;;;;33.77;11.23;;;;;;;16.52;100.00;101755.38;5098823;28;20376;-53
2023/02/21 12:56:11;;;;;;;31.93;11.80;;;;;;;16.59;100.00;101758.03;5102387;28;20261;-49
2023/02/21 12:58:43;;;;;;;32.50;13.10;;;;;;;16.05;100.00;101750.09;5103041;28;20372;-51
2023/02/21 13:01:32;;;;;;;32.00;12.27;;;;;;;16.26;100.00;101748.19;5100776;28;20040;-49
2023/02/21 13:04:00;;;;;;;31.10;11.37;;;;;;;16.09;100.00;101734.31;5098104;28;20316;-52
2023/02/21 13:06:34;;;;;;;29.97;11.70;;;;;;;17.13;100.00;101741.63;5106353;28;20265;-50
2023/02/21 13:09:12;;;;;;;35.90;13.83;;;;;;;16.51;100.00;101736.69;5105738;28;20249;-51
2023/02/21 13:11:44;;;;;;;30.87;12.73;;;;;;;16.66;100.00;101737.25;5101407;28;20337;-53
2023/02/21 13:14:16;;;;;;;29.33;11.40;;;;;;;16.85;100.00;101740.91;5100834;28;20359;-51
2023/02/21 13:16:42;;;;;;;47.00;14.30;;;;;;;16.32;100.00;101744.63;5107711;28;20509;-52
2023/02/21 13:19:10;;;;;;;43.27;16.00;;;;;;;16.80;100.00;101739.88;5102616;28;20397;-51
2023/02/21 13:21:48;;;;;;;57.90;19.57;;;;;;;16.00;100.00;101736.41;5102730;28;20273;-51
2023/02/21 13:24:39;;;;;;;49.03;17.80;;;;;;;16.38;100.00;101732.16;5098919;28;20295;-55
2023/02/21 13:27:16;;;;;;;46.03;15.03;;;;;;;16.63;100.00;101730.41;5105806;28;20272;-52
2023/02/21 13:29:43;;;;;;;43.60;14.30;;;;;;;16.59;100.00;101728.34;5109296;28;20282;-51
2023/02/21 13:32:18;;;;;;;36.45;13.85;;;;;;;16.23;100.00;101729.72;5101819;28;20285;-53